Aviation Digital Data Service (ADDS)

Output produced by TAFs form (1246 UTC 19 October 2017)
found at http://www.aviationweather.gov/adds/tafs/
 
KCSV 191153Z AUTO 00000KT 10SM CLR 05/04 A3031 RMK AO2 SLP263 T00500039 10083 20050 51013
KCSV 191120Z 1912/2012 22004KT P6SM FEW250